Time;durP1;ratioP1;P1;durP2;ratioP2;P2;SDS_P1;SDS_P2;PMS_P1;PMS_P2;Temp;Humidity;BMP_temperature;BMP_pressure;BME280_temperature;BME280_humidity;BME280_pressure;Samples;Min_cycle;Max_cycle;Signal;HPM_P1;HPM_P2
2022/12/15 00:39:41;;;;;;;6.28;5.78;;;;;;;;;;5079176;28;20191;-68
2022/12/15 00:42:10;;;;;;;6.13;5.63;;;;;;;;;;5079051;28;20208;-69
2022/12/15 00:44:38;;;;;;;6.07;5.57;;;;;;;;;;5078906;28;20271;-68
2022/12/15 00:47:04;;;;;;;6.47;5.88;;;;;;;;;;5079611;28;20266;-68
2022/12/15 01:22:38;;;;;;;5.75;5.25;;;;;;;;;;5078045;28;20187;-69
2022/12/15 01:25:07;;;;;;;5.93;5.43;;;;;;;;;;5078055;28;20227;-69
2022/12/15 01:27:35;;;;;;;5.88;5.38;;;;;;;;;;5078165;28;20252;-67
2022/12/15 01:30:05;;;;;;;5.90;5.40;;;;;;;;;;5078350;28;20208;-68
2022/12/15 01:32:33;;;;;;;6.03;5.53;;;;;;;;;;5078446;28;20238;-68
2022/12/15 01:35:01;;;;;;;6.38;5.88;;;;;;;;;;5077828;28;20254;-68
2022/12/15 01:37:28;;;;;;;5.90;5.40;;;;;;;;;;5077603;28;20290;-68
2022/12/15 01:42:41;;;;;;;6.30;5.80;;;;;;;;;;5077652;28;20257;-68
2022/12/15 01:45:46;;;;;;;6.03;5.53;;;;;;;;;;5077619;28;20285;-68
2022/12/15 01:48:14;;;;;;;6.15;5.65;;;;;;;;;;5077827;28;20215;-67
2022/12/15 01:50:43;;;;;;;6.30;5.80;;;;;;;;;;5078102;28;20204;-68
2022/12/15 01:53:12;;;;;;;5.63;5.13;;;;;;;;;;5077641;28;20494;-67
2022/12/15 01:55:41;;;;;;;6.10;5.60;;;;;;;;;;5078089;28;20201;-68
2022/12/15 01:58:10;;;;;;;5.70;5.30;;;;;;;;;;5078136;28;20248;-68
2022/12/15 02:00:39;;;;;;;6.13;5.55;;;;;;;;;;5077111;28;20298;-68
2022/12/15 02:03:07;;;;;;;6.07;5.57;;;;;;;;;;5077072;28;20208;-68
2022/12/15 02:05:36;;;;;;;5.82;5.32;;;;;;;;;;5077110;28;20267;-68
2022/12/15 02:08:04;;;;;;;6.25;5.75;;;;;;;;;;5077436;28;20204;-68
2022/12/15 02:10:37;;;;;;;6.03;5.53;;;;;;;;;;5077614;28;20253;-69
2022/12/15 02:13:10;;;;;;;6.18;5.68;;;;;;;;;;5077223;28;20205;-68
2022/12/15 02:15:42;;;;;;;5.68;5.22;;;;;;;;;;5077843;28;20200;-69
2022/12/15 02:18:13;;;;;;;6.57;6.05;;;;;;;;;;5077007;28;20333;-69
2022/12/15 02:20:43;;;;;;;5.97;5.47;;;;;;;;;;5077204;28;20204;-69
2022/12/15 02:23:27;;;;;;;6.03;5.53;;;;;;;;;;5076996;28;20287;-67
2022/12/15 02:26:10;;;;;;;5.80;5.30;;;;;;;;;;5077453;28;20234;-68
2022/12/15 02:28:44;;;;;;;5.97;5.47;;;;;;;;;;5055364;28;20204;-67
2022/12/15 02:34:06;;;;;;;5.57;5.07;;;;;;;;;;5077241;28;20199;-67
2022/12/15 02:36:36;;;;;;;6.13;5.60;;;;;;;;;;5077112;28;20370;-69
2022/12/15 02:39:05;;;;;;;6.28;5.78;;;;;;;;;;5077369;28;20204;-68
2022/12/15 02:41:34;;;;;;;6.00;5.50;;;;;;;;;;5076938;28;20227;-68
2022/12/15 02:44:02;;;;;;;6.10;5.60;;;;;;;;;;5077144;28;20211;-68
2022/12/15 02:46:36;;;;;;;5.75;5.25;;;;;;;;;;5076777;28;20328;-68
2022/12/15 02:49:07;;;;;;;5.78;5.28;;;;;;;;;;5076966;28;20203;-68
2022/12/15 02:51:40;;;;;;;6.20;5.70;;;;;;;;;;5076487;28;20208;-68
2022/12/15 02:54:21;;;;;;;5.93;5.43;;;;;;;;;;5076841;28;20215;-68
2022/12/15 02:56:54;;;;;;;6.07;5.57;;;;;;;;;;5077222;28;20212;-69
2022/12/15 02:59:25;;;;;;;6.25;5.72;;;;;;;;;;5081327;28;20242;-69
2022/12/15 03:01:57;;;;;;;5.97;5.47;;;;;;;;;;5080551;28;20588;-68
2022/12/15 03:04:26;;;;;;;5.75;5.25;;;;;;;;;;5081026;28;20204;-68
2022/12/15 03:06:57;;;;;;;6.18;5.68;;;;;;;;;;5080188;28;20204;-69
2022/12/15 03:09:24;;;;;;;6.40;5.85;;;;;;;;;;5080775;28;20204;-68
2022/12/15 03:11:52;;;;;;;6.00;5.50;;;;;;;;;;5080417;28;20204;-68
2022/12/15 03:14:20;;;;;;;6.40;5.80;;;;;;;;;;5081144;28;20208;-68
2022/12/15 03:16:48;;;;;;;6.10;5.60;;;;;;;;;;5080429;28;20232;-69
2022/12/15 03:19:17;;;;;;;6.18;5.57;;;;;;;;;;5080766;28;20303;-68
2022/12/15 03:21:44;;;;;;;6.28;5.78;;;;;;;;;;5080565;28;20213;-68
2022/12/15 03:24:12;;;;;;;6.88;5.72;;;;;;;;;;5080784;28;20244;-68
2022/12/15 03:26:40;;;;;;;6.32;5.72;;;;;;;;;;5080753;28;20245;-69
2022/12/15 03:29:07;;;;;;;6.05;5.55;;;;;;;;;;5080874;28;20578;-67
2022/12/15 03:31:35;;;;;;;6.30;5.80;;;;;;;;;;5080586;28;20243;-68
2022/12/15 03:34:03;;;;;;;6.40;5.80;;;;;;;;;;5080253;28;20291;-67
2022/12/15 03:36:32;;;;;;;6.40;5.82;;;;;;;;;;5080063;28;20201;-68
2022/12/15 03:39:00;;;;;;;5.88;5.40;;;;;;;;;;5080167;28;20601;-67
2022/12/15 03:41:27;;;;;;;6.68;6.07;;;;;;;;;;5080060;28;20204;-68
2022/12/15 03:43:55;;;;;;;5.75;5.25;;;;;;;;;;5079536;28;20204;-68
2022/12/15 03:46:23;;;;;;;6.82;6.22;;;;;;;;;;5080115;28;20228;-68
2022/12/15 03:48:50;;;;;;;10.07;9.27;;;;;;;;;;5079283;28;20496;-67
2022/12/15 03:51:18;;;;;;;9.30;8.60;;;;;;;;;;5080550;28;20212;-67
2022/12/15 03:53:48;;;;;;;9.15;8.35;;;;;;;;;;5079666;28;20330;-68
2022/12/15 03:56:16;;;;;;;9.05;8.25;;;;;;;;;;5080645;28;20200;-68
2022/12/15 03:58:43;;;;;;;8.10;7.40;;;;;;;;;;5079780;28;20237;-69
2022/12/15 04:01:12;;;;;;;8.77;8.07;;;;;;;;;;5080206;28;20233;-69
2022/12/15 04:03:39;;;;;;;8.10;7.32;;;;;;;;;;5080295;28;20797;-69
2022/12/15 04:06:08;;;;;;;8.23;7.53;;;;;;;;;;5080091;28;20290;-69
2022/12/15 04:08:35;;;;;;;145.82;131.40;;;;;;;;;;5079227;28;20204;-69
2022/12/15 04:11:04;;;;;;;141.43;127.85;;;;;;;;;;5079641;28;20258;-69
2022/12/15 04:13:32;;;;;;;112.93;102.18;;;;;;;;;;5079881;28;20214;-68
2022/12/15 04:16:02;;;;;;;103.40;93.55;;;;;;;;;;5079283;28;20497;-69
2022/12/15 04:18:29;;;;;;;100.85;91.25;;;;;;;;;;5077669;28;20473;-68
2022/12/15 04:20:56;;;;;;;97.75;88.32;;;;;;;;;;5078602;28;20299;-68
2022/12/15 04:23:24;;;;;;;92.53;83.75;;;;;;;;;;5078815;28;20265;-68
2022/12/15 05:32:06;;;;;;;33.55;30.45;;;;;;;;;;5075918;28;20245;-69
2022/12/15 05:34:36;;;;;;;32.08;29.00;;;;;;;;;;5075221;28;20212;-68
2022/12/15 05:37:04;;;;;;;31.50;28.50;;;;;;;;;;5076370;28;20209;-68
2022/12/15 05:39:31;;;;;;;30.88;27.98;;;;;;;;;;5076438;28;20212;-68
2022/12/15 05:41:59;;;;;;;28.65;26.05;;;;;;;;;;5075345;28;20208;-68
2022/12/15 05:44:26;;;;;;;28.33;25.65;;;;;;;;;;5075932;28;20212;-69
2022/12/15 05:46:53;;;;;;;28.13;25.52;;;;;;;;;;5075468;28;20235;-68
2022/12/15 05:49:22;;;;;;;27.17;24.67;;;;;;;;;;5076012;28;20208;-68
2022/12/15 05:51:51;;;;;;;25.92;23.52;;;;;;;;;;5075407;28;20253;-69
2022/12/15 05:54:19;;;;;;;24.92;22.70;;;;;;;;;;5076171;28;20205;-68
2022/12/15 05:56:47;;;;;;;24.83;22.52;;;;;;;;;;5075468;28;20208;-68
2022/12/15 05:59:14;;;;;;;23.38;21.23;;;;;;;;;;5074678;28;20211;-73
2022/12/15 06:01:41;;;;;;;23.60;21.50;;;;;;;;;;5074312;28;20219;-69
2022/12/15 06:04:10;;;;;;;23.10;20.92;;;;;;;;;;5073319;28;20402;-69
2022/12/15 06:06:37;;;;;;;22.42;20.38;;;;;;;;;;5072955;28;20239;-68
2022/12/15 06:09:06;;;;;;;21.05;19.20;;;;;;;;;;5072861;28;20215;-68
2022/12/15 06:11:33;;;;;;;20.23;18.33;;;;;;;;;;5073789;28;20251;-68
2022/12/15 06:14:01;;;;;;;20.30;18.50;;;;;;;;;;5074535;28;20208;-68
2022/12/15 06:16:28;;;;;;;19.67;17.88;;;;;;;;;;5073879;28;20204;-69
2022/12/15 06:18:56;;;;;;;19.30;17.50;;;;;;;;;;5073613;28;20398;-68
2022/12/15 06:21:25;;;;;;;18.83;17.10;;;;;;;;;;5074233;28;20212;-69
2022/12/15 06:23:52;;;;;;;17.58;16.00;;;;;;;;;;5074084;28;20204;-69
2022/12/15 06:26:21;;;;;;;18.15;16.55;;;;;;;;;;5073785;28;20664;-68
2022/12/15 06:28:49;;;;;;;21.80;19.70;;;;;;;;;;5072210;28;20212;-69
2022/12/15 06:31:17;;;;;;;21.65;19.65;;;;;;;;;;5073560;28;20203;-68
2022/12/15 06:33:45;;;;;;;21.80;19.70;;;;;;;;;;5073081;28;20265;-68
2022/12/15 06:36:13;;;;;;;20.30;18.42;;;;;;;;;;5073792;28;20201;-68
2022/12/15 06:38:42;;;;;;;19.45;17.75;;;;;;;;;;5073227;28;20212;-68
2022/12/15 06:41:10;;;;;;;20.00;18.05;;;;;;;;;;5073576;28;20311;-68
2022/12/15 06:43:39;;;;;;;19.88;17.88;;;;;;;;;;5073705;28;20200;-68
2022/12/15 06:46:07;;;;;;;19.80;17.85;;;;;;;;;;5073254;28;20297;-69
2022/12/15 06:48:35;;;;;;;18.65;16.75;;;;;;;;;;5073134;28;20208;-68
2022/12/15 06:51:03;;;;;;;18.65;16.88;;;;;;;;;;5072859;28;20208;-68
2022/12/15 06:53:31;;;;;;;18.45;16.48;;;;;;;;;;5073329;28;20307;-68
2022/12/15 06:56:00;;;;;;;18.08;16.17;;;;;;;;;;5073989;28;20214;-68
2022/12/15 06:58:27;;;;;;;18.13;16.20;;;;;;;;;;5072637;28;20465;-68
2022/12/15 07:00:56;;;;;;;17.50;15.80;;;;;;;;;;5072277;28;20247;-68
2022/12/15 07:03:24;;;;;;;17.23;15.52;;;;;;;;;;5074108;28;20590;-69
2022/12/15 07:06:01;;;;;;;17.80;15.90;;;;;;;;;;5073845;28;20347;-69
2022/12/15 07:08:28;;;;;;;19.58;15.73;;;;;;;;;;5073379;28;20294;-68
2022/12/15 07:10:56;;;;;;;15.98;14.30;;;;;;;;;;5073096;28;20209;-68
2022/12/15 07:13:23;;;;;;;15.95;14.25;;;;;;;;;;5073197;28;20374;-68
2022/12/15 07:15:50;;;;;;;16.48;14.88;;;;;;;;;;5073516;28;20204;-69
2022/12/15 07:18:19;;;;;;;15.13;13.05;;;;;;;;;;5074225;28;20239;-68
2022/12/15 07:20:46;;;;;;;15.65;13.82;;;;;;;;;;5074205;28;20197;-68
2022/12/15 07:23:13;;;;;;;15.45;13.25;;;;;;;;;;5073763;28;20219;-68
2022/12/15 07:25:41;;;;;;;14.60;12.95;;;;;;;;;;5073705;28;20200;-69
2022/12/15 07:28:08;;;;;;;13.88;12.45;;;;;;;;;;5072319;28;20213;-69
2022/12/15 07:30:36;;;;;;;14.52;12.77;;;;;;;;;;5072746;28;20228;-69
2022/12/15 07:33:03;;;;;;;15.05;12.55;;;;;;;;;;5073645;28;20266;-69
2022/12/15 07:35:32;;;;;;;13.90;12.50;;;;;;;;;;5073436;28;20251;-68
2022/12/15 07:38:00;;;;;;;12.95;11.63;;;;;;;;;;5072632;28;20520;-68
2022/12/15 07:40:27;;;;;;;13.75;11.85;;;;;;;;;;5073143;28;20535;-68
2022/12/15 07:42:54;;;;;;;12.27;11.07;;;;;;;;;;5073216;28;20212;-69
2022/12/15 07:45:22;;;;;;;13.57;11.52;;;;;;;;;;5075397;28;20204;-68
2022/12/15 07:47:50;;;;;;;12.98;11.60;;;;;;;;;;5076921;28;20228;-68
2022/12/15 07:50:18;;;;;;;12.95;11.30;;;;;;;;;;5076992;28;20312;-68
2022/12/15 07:52:47;;;;;;;12.60;11.30;;;;;;;;;;5076158;28;20608;-68
2022/12/15 07:55:15;;;;;;;12.27;10.98;;;;;;;;;;5077390;28;20212;-68
2022/12/15 07:57:42;;;;;;;11.50;10.20;;;;;;;;;;5075735;28;20482;-68
2022/12/15 08:00:10;;;;;;;11.20;10.00;;;;;;;;;;5075928;28;20205;-68
2022/12/15 08:02:37;;;;;;;11.35;10.25;;;;;;;;;;5075872;28;20254;-68
2022/12/15 08:05:05;;;;;;;11.80;10.15;;;;;;;;;;5076617;28;20212;-69
2022/12/15 08:07:32;;;;;;;11.25;10.07;;;;;;;;;;5075213;28;20220;-68
2022/12/15 08:10:01;;;;;;;10.07;9.10;;;;;;;;;;5076516;28;20211;-68
2022/12/15 08:12:28;;;;;;;10.80;9.70;;;;;;;;;;5076389;28;20550;-69
2022/12/15 08:14:55;;;;;;;10.85;9.82;;;;;;;;;;5076457;28;20196;-68
2022/12/15 08:17:23;;;;;;;10.80;9.70;;;;;;;;;;5075422;28;20228;-69
2022/12/15 08:19:50;;;;;;;10.00;9.10;;;;;;;;;;5075979;28;20212;-69
2022/12/15 08:22:17;;;;;;;10.65;9.65;;;;;;;;;;5075595;28;20205;-68
2022/12/15 08:24:46;;;;;;;9.90;8.90;;;;;;;;;;5076215;28;20204;-68
2022/12/15 08:27:15;;;;;;;9.60;8.70;;;;;;;;;;5075914;28;20251;-68
2022/12/15 08:29:43;;;;;;;10.43;9.32;;;;;;;;;;5076053;28;20216;-69
2022/12/15 08:32:10;;;;;;;9.63;8.73;;;;;;;;;;5076426;28;20459;-68
2022/12/15 08:34:38;;;;;;;10.23;9.23;;;;;;;;;;5075105;28;20208;-68
2022/12/15 08:37:06;;;;;;;9.80;8.85;;;;;;;;;;5077033;28;20226;-68
2022/12/15 08:39:33;;;;;;;9.68;8.77;;;;;;;;;;5075725;28;20514;-68
2022/12/15 08:42:00;;;;;;;10.15;9.15;;;;;;;;;;5074406;28;20564;-69
2022/12/15 08:44:29;;;;;;;9.85;8.95;;;;;;;;;;5075510;28;20204;-68
2022/12/15 08:46:57;;;;;;;9.18;8.38;;;;;;;;;;5075946;28;20236;-68
2022/12/15 08:49:24;;;;;;;9.18;8.32;;;;;;;;;;5075365;28;20204;-69
2022/12/15 08:51:51;;;;;;;9.70;8.80;;;;;;;;;;5074875;28;20291;-69
2022/12/15 08:54:20;;;;;;;9.65;8.75;;;;;;;;;;5075997;28;20230;-68
2022/12/15 08:57:23;;;;;;;9.07;8.27;;;;;;;;;;5076052;28;20196;-69
2022/12/15 08:59:52;;;;;;;9.10;8.20;;;;;;;;;;5077746;28;20484;-68
2022/12/15 09:02:20;;;;;;;9.38;8.45;;;;;;;;;;5078248;28;20216;-68
2022/12/15 09:04:47;;;;;;;9.93;8.43;;;;;;;;;;5077522;28;20209;-69
2022/12/15 09:07:14;;;;;;;8.65;7.85;;;;;;;;;;5077730;28;20323;-68
2022/12/15 09:09:42;;;;;;;9.32;8.45;;;;;;;;;;5076965;28;20211;-68
2022/12/15 09:15:14;;;;;;;8.77;7.95;;;;;;;;;;5553197;22;20245;-68
2022/12/15 09:17:42;;;;;;;8.68;7.78;;;;;;;;;;5096322;28;20210;-68
2022/12/15 09:20:09;;;;;;;8.02;7.32;;;;;;;;;;5096635;28;20218;-68
2022/12/15 09:22:37;;;;;;;8.20;7.40;;;;;;;;;;5095885;28;20203;-68
2022/12/15 09:25:05;;;;;;;9.18;8.38;;;;;;;;;;5095972;28;20219;-68
2022/12/15 09:27:33;;;;;;;8.75;7.95;;;;;;;;;;5095106;28;20322;-68
2022/12/15 09:30:01;;;;;;;8.48;7.75;;;;;;;;;;5095481;28;20686;-68
2022/12/15 09:32:31;;;;;;;9.35;8.43;;;;;;;;;;5095917;28;20204;-68
2022/12/15 09:34:58;;;;;;;23.83;20.10;;;;;;;;;;5096853;28;20213;-68
2022/12/15 09:37:25;;;;;;;20.25;16.58;;;;;;;;;;5095189;28;20199;-68
2022/12/15 09:39:53;;;;;;;17.10;15.30;;;;;;;;;;5095210;28;20600;-68
2022/12/15 09:42:24;;;;;;;17.58;15.68;;;;;;;;;;5095650;28;20208;-68
2022/12/15 09:44:53;;;;;;;16.23;14.20;;;;;;;;;;5095620;28;20291;-67
2022/12/15 09:47:25;;;;;;;16.50;14.05;;;;;;;;;;5094666;28;20298;-68
2022/12/15 09:49:56;;;;;;;15.23;13.35;;;;;;;;;;5095230;28;20302;-68
2022/12/15 09:52:25;;;;;;;15.43;13.48;;;;;;;;;;5094750;28;20291;-68
2022/12/15 09:54:53;;;;;;;15.38;13.77;;;;;;;;;;5094293;28;20291;-68
2022/12/15 09:57:25;;;;;;;18.08;14.00;;;;;;;;;;5095168;28;20290;-68
2022/12/15 10:00:14;;;;;;;18.38;14.38;;;;;;;;;;5094416;28;20320;-68
2022/12/15 10:02:56;;;;;;;18.45;13.50;;;;;;;;;;5088679;28;20215;-68
2022/12/15 10:05:32;;;;;;;16.63;14.80;;;;;;;;;;5091630;28;20318;-68
2022/12/15 10:08:00;;;;;;;18.13;15.73;;;;;;;;;;5093409;28;20787;-67
2022/12/15 10:10:31;;;;;;;19.58;15.43;;;;;;;;;;5094138;28;20593;-68
2022/12/15 10:13:01;;;;;;;17.20;15.25;;;;;;;;;;5094201;28;20211;-70
2022/12/15 10:15:30;;;;;;;17.80;14.70;;;;;;;;;;5094285;28;20231;-68
2022/12/15 10:18:00;;;;;;;19.08;15.05;;;;;;;;;;5093847;28;20209;-67
2022/12/15 10:20:30;;;;;;;17.13;15.25;;;;;;;;;;5094013;28;20776;-68
2022/12/15 10:23:02;;;;;;;17.45;14.65;;;;;;;;;;5094549;28;20235;-67
2022/12/15 10:25:30;;;;;;;15.85;14.15;;;;;;;;;;5094134;28;20207;-66
2022/12/15 10:28:11;;;;;;;15.20;13.60;;;;;;;;;;5093856;28;20225;-66
2022/12/15 10:30:40;;;;;;;16.13;14.15;;;;;;;;;;5094434;28;20203;-66
2022/12/15 10:33:14;;;;;;;15.30;13.70;;;;;;;;;;5094486;28;20204;-66
2022/12/15 10:35:44;;;;;;;14.98;13.43;;;;;;;;;;5094279;28;20206;-67
2022/12/15 10:38:17;;;;;;;13.80;12.07;;;;;;;;;;5094551;28;20273;-68
2022/12/15 10:40:47;;;;;;;14.15;12.55;;;;;;;;;;5094003;28;20302;-68
2022/12/15 10:43:15;;;;;;;13.65;12.25;;;;;;;;;;5094318;28;20277;-68
2022/12/15 10:45:43;;;;;;;14.20;12.73;;;;;;;;;;5094530;28;20318;-68
2022/12/15 10:48:17;;;;;;;14.07;12.63;;;;;;;;;;5093406;28;20410;-68
2022/12/15 10:50:46;;;;;;;13.52;12.10;;;;;;;;;;5094126;28;20294;-67
2022/12/15 10:53:32;;;;;;;12.88;11.57;;;;;;;;;;5094041;28;20567;-68
2022/12/15 10:56:01;;;;;;;21.35;19.25;;;;;;;;;;5093213;28;20310;-67
2022/12/15 10:58:28;;;;;;;20.15;18.15;;;;;;;;;;5092986;28;20617;-68
2022/12/15 11:01:06;;;;;;;18.48;16.58;;;;;;;;;;5092842;28;20702;-68
2022/12/15 11:03:37;;;;;;;18.13;16.23;;;;;;;;;;5091739;28;20199;-68
2022/12/15 11:06:11;;;;;;;17.80;15.95;;;;;;;;;;5092315;28;20203;-68
2022/12/15 11:08:38;;;;;;;17.20;15.48;;;;;;;;;;5092984;28;20228;-69
2022/12/15 11:14:12;;;;;;;18.83;15.23;;;;;;;;;;5092573;28;20210;-68
2022/12/15 11:16:45;;;;;;;16.40;14.73;;;;;;;;;;5093566;28;20748;-68
2022/12/15 11:19:15;;;;;;;15.38;13.77;;;;;;;;;;5095184;28;20217;-69
2022/12/15 11:21:46;;;;;;;15.10;13.57;;;;;;;;;;5096622;28;20204;-68
2022/12/15 11:24:15;;;;;;;15.10;13.60;;;;;;;;;;5096849;28;20207;-68
2022/12/15 11:26:49;;;;;;;15.25;13.73;;;;;;;;;;5096005;28;20210;-68
2022/12/15 11:29:23;;;;;;;14.98;13.23;;;;;;;;;;5097010;28;20199;-68
2022/12/15 11:31:51;;;;;;;14.45;13.00;;;;;;;;;;5095943;28;20203;-68
2022/12/15 11:34:21;;;;;;;14.05;12.73;;;;;;;;;;5096532;28;20314;-68
2022/12/15 11:36:59;;;;;;;14.60;13.20;;;;;;;;;;5095598;28;20206;-68
2022/12/15 11:39:33;;;;;;;12.90;11.70;;;;;;;;;;5096331;28;20290;-68
2022/12/15 11:42:04;;;;;;;13.23;11.90;;;;;;;;;;5096083;28;20306;-67
2022/12/15 11:44:38;;;;;;;12.70;11.50;;;;;;;;;;5095386;28;20730;-68
2022/12/15 11:47:08;;;;;;;13.55;12.30;;;;;;;;;;5094743;28;20220;-68
2022/12/15 11:49:50;;;;;;;12.73;11.52;;;;;;;;;;5096176;28;20214;-68
2022/12/15 11:52:29;;;;;;;12.95;11.75;;;;;;;;;;5095726;28;20237;-68
2022/12/15 11:55:02;;;;;;;13.02;11.82;;;;;;;;;;5096630;28;20200;-68
2022/12/15 11:57:40;;;;;;;11.95;10.82;;;;;;;;;;5096213;28;20299;-68
2022/12/15 12:00:10;;;;;;;13.15;11.95;;;;;;;;;;5096785;28;20210;-68
2022/12/15 12:02:55;;;;;;;12.82;11.65;;;;;;;;;;5095446;28;20283;-68
2022/12/15 12:05:28;;;;;;;12.27;11.18;;;;;;;;;;5083181;28;20219;-68
2022/12/15 12:08:01;;;;;;;12.55;11.45;;;;;;;;;;5095177;28;20228;-68
2022/12/15 12:10:32;;;;;;;11.93;10.93;;;;;;;;;;5096076;28;20203;-68
2022/12/15 12:13:05;;;;;;;12.23;11.15;;;;;;;;;;5095997;28;20584;-68
2022/12/15 12:15:36;;;;;;;12.20;11.10;;;;;;;;;;5095089;28;20246;-68
2022/12/15 12:18:07;;;;;;;12.05;10.95;;;;;;;;;;5096187;28;20200;-68
2022/12/15 12:20:40;;;;;;;11.65;10.55;;;;;;;;;;5095015;28;20235;-68
2022/12/15 12:23:13;;;;;;;10.70;9.80;;;;;;;;;;5095699;28;20532;-68
2022/12/15 12:25:44;;;;;;;10.27;9.38;;;;;;;;;;5096563;28;20246;-68
2022/12/15 12:28:16;;;;;;;10.80;9.82;;;;;;;;;;5096057;28;20314;-68
2022/12/15 12:30:46;;;;;;;9.85;9.05;;;;;;;;;;5093722;28;20280;-68
2022/12/15 12:33:18;;;;;;;9.98;9.05;;;;;;;;;;5095906;28;20665;-70
2022/12/15 12:35:47;;;;;;;9.45;8.55;;;;;;;;;;5095767;28;20212;-68
2022/12/15 12:38:19;;;;;;;9.93;9.02;;;;;;;;;;5095066;28;20199;-67
2022/12/15 12:40:49;;;;;;;9.10;8.30;;;;;;;;;;5094628;28;20200;-69
2022/12/15 12:43:23;;;;;;;9.98;8.98;;;;;;;;;;5094994;28;20705;-68
2022/12/15 12:45:53;;;;;;;9.18;8.30;;;;;;;;;;5094566;28;20204;-67
2022/12/15 12:48:25;;;;;;;8.52;7.82;;;;;;;;;;5094105;28;20228;-68
2022/12/15 12:50:53;;;;;;;8.95;8.15;;;;;;;;;;5094500;28;20196;-68
2022/12/15 12:53:34;;;;;;;8.40;7.60;;;;;;;;;;5094258;28;20200;-68
2022/12/15 12:56:02;;;;;;;8.80;7.90;;;;;;;;;;5095707;28;20203;-68
2022/12/15 12:58:34;;;;;;;8.63;7.82;;;;;;;;;;5095368;28;20294;-68
2022/12/15 13:01:06;;;;;;;7.97;7.28;;;;;;;;;;5095311;28;20306;-68
2022/12/15 13:03:34;;;;;;;7.72;7.00;;;;;;;;;;5095084;28;20277;-68
2022/12/15 13:06:20;;;;;;;7.70;7.00;;;;;;;;;;5094679;28;20195;-68
2022/12/15 13:08:50;;;;;;;7.78;7.15;;;;;;;;;;5095013;28;20228;-67
2022/12/15 13:11:37;;;;;;;8.18;7.47;;;;;;;;;;5094701;28;20204;-67
2022/12/15 13:14:04;;;;;;;7.95;7.18;;;;;;;;;;5095208;28;20663;-67
2022/12/15 13:16:32;;;;;;;7.75;7.05;;;;;;;;;;5094334;28;20642;-67
2022/12/15 13:19:05;;;;;;;7.03;6.43;;;;;;;;;;5094813;28;20218;-67
2022/12/15 13:21:52;;;;;;;7.20;6.50;;;;;;;;;;5093418;28;20698;-67
2022/12/15 13:24:26;;;;;;;7.18;6.57;;;;;;;;;;5093805;28;20819;-67
2022/12/15 13:27:03;;;;;;;6.70;6.13;;;;;;;;;;5086649;28;20204;-67
2022/12/15 13:29:31;;;;;;;7.10;6.40;;;;;;;;;;5072979;28;20234;-67
2022/12/15 13:31:59;;;;;;;6.95;6.35;;;;;;;;;;5073000;28;20212;-67
2022/12/15 13:34:28;;;;;;;6.90;6.30;;;;;;;;;;5072842;28;20214;-67
2022/12/15 13:36:56;;;;;;;6.63;6.03;;;;;;;;;;5074061;28;20220;-67
2022/12/15 13:39:36;;;;;;;6.65;6.05;;;;;;;;;;5073171;28;20611;-67
2022/12/15 13:42:22;;;;;;;6.40;5.85;;;;;;;;;;5073086;28;20210;-67
2022/12/15 13:44:50;;;;;;;6.45;5.80;;;;;;;;;;5073299;28;20200;-67
2022/12/15 13:47:23;;;;;;;6.45;5.88;;;;;;;;;;5072892;28;20211;-67
2022/12/15 13:49:55;;;;;;;6.80;6.20;;;;;;;;;;5072735;28;20228;-68
2022/12/15 13:52:27;;;;;;;6.13;5.57;;;;;;;;;;5073360;28;20204;-68
2022/12/15 13:54:58;;;;;;;6.63;6.03;;;;;;;;;;5073608;28;20295;-68
2022/12/15 13:57:27;;;;;;;6.20;5.60;;;;;;;;;;5073904;28;20676;-68
2022/12/15 13:59:57;;;;;;;6.53;5.93;;;;;;;;;;5073153;28;20287;-68
2022/12/15 14:02:26;;;;;;;6.03;5.53;;;;;;;;;;5073809;28;20201;-68
2022/12/15 14:05:19;;;;;;;6.07;5.57;;;;;;;;;;5072443;28;20200;-68
2022/12/15 14:07:48;;;;;;;6.30;5.70;;;;;;;;;;5059830;28;20490;-68
2022/12/15 14:10:22;;;;;;;6.10;5.60;;;;;;;;;;5073745;28;20196;-68
2022/12/15 14:12:51;;;;;;;6.18;5.68;;;;;;;;;;5073444;28;20619;-68
2022/12/15 14:15:19;;;;;;;6.18;5.68;;;;;;;;;;5073115;28;20243;-68
2022/12/15 14:17:49;;;;;;;6.38;5.80;;;;;;;;;;5073874;28;20291;-69
2022/12/15 14:20:19;;;;;;;6.22;5.68;;;;;;;;;;5073512;28;20212;-68
2022/12/15 14:22:49;;;;;;;6.28;5.68;;;;;;;;;;5073136;28;20247;-69
2022/12/15 14:25:19;;;;;;;5.20;4.80;;;;;;;;;;5073762;28;20204;-68
2022/12/15 14:27:48;;;;;;;5.63;5.15;;;;;;;;;;5074014;28;20200;-68
2022/12/15 14:30:21;;;;;;;6.03;5.45;;;;;;;;;;5073437;28;20693;-68
2022/12/15 14:32:51;;;;;;;5.75;5.25;;;;;;;;;;5073749;28;20203;-68
2022/12/15 14:35:24;;;;;;;6.10;5.60;;;;;;;;;;5078684;28;20213;-67
2022/12/15 14:37:52;;;;;;;5.68;5.20;;;;;;;;;;5094387;28;20214;-68
2022/12/15 14:40:20;;;;;;;5.35;4.90;;;;;;;;;;5093630;28;20196;-68
2022/12/15 14:42:49;;;;;;;5.95;5.45;;;;;;;;;;5093147;28;20608;-68
2022/12/15 14:45:21;;;;;;;5.72;5.22;;;;;;;;;;5093528;28;20203;-68
2022/12/15 14:47:52;;;;;;;5.80;5.20;;;;;;;;;;5092970;28;20547;-68
2022/12/15 14:50:20;;;;;;;5.50;5.00;;;;;;;;;;5093866;28;20211;-67
2022/12/15 14:52:47;;;;;;;5.82;5.32;;;;;;;;;;5093264;28;20310;-68
2022/12/15 14:55:27;;;;;;;5.85;5.35;;;;;;;;;;5096725;28;20699;-69
2022/12/15 14:57:55;;;;;;;5.95;5.45;;;;;;;;;;5096943;28;20203;-68
2022/12/15 15:00:27;;;;;;;5.80;5.30;;;;;;;;;;5097052;28;20298;-69
2022/12/15 15:03:13;;;;;;;5.40;5.00;;;;;;;;;;5096919;28;20311;-68
2022/12/15 15:05:41;;;;;;;5.95;5.45;;;;;;;;;;5096852;28;20286;-68
2022/12/15 15:08:12;;;;;;;5.93;5.43;;;;;;;;;;5097480;28;20581;-67
2022/12/15 15:10:39;;;;;;;6.53;5.80;;;;;;;;;;5096615;28;20195;-68
2022/12/15 15:13:13;;;;;;;6.38;5.78;;;;;;;;;;5096803;28;20455;-67
2022/12/15 15:15:41;;;;;;;6.85;6.15;;;;;;;;;;5095510;28;20497;-68
2022/12/15 15:18:15;;;;;;;6.30;5.70;;;;;;;;;;5096417;28;20207;-68
2022/12/15 15:20:51;;;;;;;6.00;5.50;;;;;;;;;;5096755;28;20293;-68
2022/12/15 15:23:18;;;;;;;6.07;5.57;;;;;;;;;;5097613;28;20203;-68
2022/12/15 15:25:49;;;;;;;6.20;5.70;;;;;;;;;;5096252;28;20204;-67
2022/12/15 15:28:23;;;;;;;6.30;5.70;;;;;;;;;;5096962;28;20310;-68
2022/12/15 15:30:51;;;;;;;6.32;5.72;;;;;;;;;;5096866;28;20281;-68
2022/12/15 15:33:19;;;;;;;6.50;5.95;;;;;;;;;;5096745;28;20209;-69
2022/12/15 15:35:48;;;;;;;6.30;5.80;;;;;;;;;;5095347;28;20227;-68
2022/12/15 15:38:18;;;;;;;6.00;5.47;;;;;;;;;;5097568;28;20306;-69
2022/12/15 15:40:49;;;;;;;6.28;5.75;;;;;;;;;;5097404;28;20294;-68
2022/12/15 15:43:17;;;;;;;6.50;5.90;;;;;;;;;;5096664;28;20260;-68
2022/12/15 15:45:47;;;;;;;6.32;5.72;;;;;;;;;;5097113;28;20204;-68
2022/12/15 15:48:17;;;;;;;6.47;5.63;;;;;;;;;;5095939;28;20213;-68
2022/12/15 15:50:46;;;;;;;6.15;5.50;;;;;;;;;;5097159;28;20469;-68
2022/12/15 15:53:16;;;;;;;6.40;5.70;;;;;;;;;;5095580;28;20502;-67
2022/12/15 15:55:44;;;;;;;6.20;5.60;;;;;;;;;;5095345;28;20576;-68
2022/12/15 15:58:12;;;;;;;5.78;5.25;;;;;;;;;;5096754;28;20212;-68
2022/12/15 16:00:39;;;;;;;6.05;5.50;;;;;;;;;;5096533;28;20195;-68
2022/12/15 16:03:08;;;;;;;6.75;5.97;;;;;;;;;;5096770;28;20481;-67
2022/12/15 16:05:36;;;;;;;6.28;5.57;;;;;;;;;;5095981;28;20207;-68
2022/12/15 16:08:04;;;;;;;5.47;4.97;;;;;;;;;;5096676;28;20210;-68
2022/12/15 16:10:32;;;;;;;5.93;5.43;;;;;;;;;;5095943;28;20318;-67
2022/12/15 16:13:00;;;;;;;5.45;4.95;;;;;;;;;;5096895;28;20206;-67
2022/12/15 16:15:30;;;;;;;6.20;5.55;;;;;;;;;;5095979;28;20235;-67
2022/12/15 16:17:58;;;;;;;5.60;5.10;;;;;;;;;;5094181;28;20200;-68
2022/12/15 16:20:28;;;;;;;7.72;5.43;;;;;;;;;;5095899;28;20777;-68
2022/12/15 16:22:58;;;;;;;5.57;5.10;;;;;;;;;;5096887;28;20525;-68
2022/12/15 16:25:29;;;;;;;5.70;5.18;;;;;;;;;;5095614;28;20299;-68
2022/12/15 16:27:57;;;;;;;5.85;5.35;;;;;;;;;;5095621;28;20265;-65
2022/12/15 16:30:25;;;;;;;5.88;5.38;;;;;;;;;;5096150;28;20348;-67
2022/12/15 16:32:53;;;;;;;5.75;5.10;;;;;;;;;;5095586;28;20195;-66
2022/12/15 16:35:20;;;;;;;6.18;5.28;;;;;;;;;;5096041;28;20204;-66
2022/12/15 16:37:49;;;;;;;6.43;4.85;;;;;;;;;;5095849;28;20576;-67
2022/12/15 16:40:18;;;;;;;6.28;5.55;;;;;;;;;;5095048;28;20283;-66
2022/12/15 16:42:48;;;;;;;7.13;5.30;;;;;;;;;;5094918;28;20200;-67
2022/12/15 16:45:17;;;;;;;6.65;5.38;;;;;;;;;;5094576;28;20306;-67
2022/12/15 16:47:45;;;;;;;5.40;4.90;;;;;;;;;;5095965;28;20203;-67
2022/12/15 16:50:16;;;;;;;9.18;4.85;;;;;;;;;;5095337;28;20227;-66
2022/12/15 16:52:44;;;;;;;7.47;6.68;;;;;;;;;;5095452;28;20200;-66
2022/12/15 16:55:19;;;;;;;6.47;5.78;;;;;;;;;;5096087;28;20211;-66
2022/12/15 16:57:48;;;;;;;6.50;5.90;;;;;;;;;;5094762;28;20245;-66
2022/12/15 17:00:16;;;;;;;6.43;5.82;;;;;;;;;;5095529;28;20427;-66
2022/12/15 17:02:43;;;;;;;6.60;6.00;;;;;;;;;;5095219;28;20762;-66
2022/12/15 17:05:11;;;;;;;6.43;5.80;;;;;;;;;;5095629;28;20204;-67
2022/12/15 17:07:39;;;;;;;6.30;5.70;;;;;;;;;;5095801;28;20683;-67
2022/12/15 17:10:07;;;;;;;5.95;5.40;;;;;;;;;;5095335;28;20263;-66
2022/12/15 17:12:36;;;;;;;5.97;5.38;;;;;;;;;;5094651;28;20210;-66
2022/12/15 17:15:03;;;;;;;6.82;5.55;;;;;;;;;;5095292;28;20315;-66
2022/12/15 17:17:31;;;;;;;6.68;6.07;;;;;;;;;;5094720;28;20238;-66
2022/12/15 17:19:59;;;;;;;6.25;5.57;;;;;;;;;;5095321;28;20195;-66